URKKURKA

Guest
Details From URKK - Pashkovskiy
To URKA - Vityazevo
Flight Number -
Tags Generated
Created
Modified
Stats Distance 77 nm / 142 km
Max Altitude 0 ft / 0 m
Waypoints 2
Social Downloads 3
Likes 0
Share VATSIM

Download

Looking for another format? Having issues loading an existing format? Contact us
Advertisement - Login to hide

Notes

Generated

Route

URKK URKA

ID Type Via Altitude Latitude Longitude Leg Dist Tot Dist Heading (true) Name
O URKK APT - 0 ft / 0 m 45.02906˚ 39.14142˚ - 0 nm - -
O URKA APT - 0 ft / 0 m 44.99374˚ 37.33714˚ 76 nm 76 nm 269° / 268° -

Altitude Profile

Advertisement - Login to hide

URKK

Details ICAO URKK (KRR)
Name PASHKOVSKIY
Region Russia
Timezone Europe/Moscow (UTC+3.0)
Stats Elevation 118 ft / 36 m (AMSL)
Location 45.034644° 39.170454°
Runways 2
Magnetic Variation 7.356° E

METAR

URKK 152330Z 11002MPS 9000 NSC 03/03 Q1019 R23L/290060 NOSIG RMK QFE761

Decode

TAF

TAF URKK 151955Z 1521/1621 10003G08MPS 3100 BR SCT011 BKN020CB TEMPO 1521/1606 0300 FG BKN002 BKN020CB BECMG 1607/1609 9999 NSW SCT030

Decode

Departure Runways

ID Width Length Bearing (true) Bearing (mag) Surface Threshold Offset Overrun Length
05L 160 ft / 49 m 7,177 ft / 2,187 m 52.37° 45.01° Asphalt 0 ft / 0 m 160 ft / 49 m
05R 145 ft / 44 m 9,822 ft / 2,994 m 52.45° 45.09° Concrete 0 ft / 0 m 160 ft / 49 m
23L 145 ft / 44 m 9,822 ft / 2,994 m 232.47° 225.11° Concrete 0 ft / 0 m 160 ft / 49 m
23R 160 ft / 49 m 7,177 ft / 2,187 m 232.38° 225.02° Asphalt 0 ft / 0 m 160 ft / 49 m

URKA

Details ICAO URKA (AAQ)
Name Vityazevo
Region Russia
Timezone Europe/Moscow (UTC+3.0)
Stats Elevation 173 ft / 53 m (AMSL)
Location 45.001895° 37.347609°
Runways 2
Magnetic Variation 7.172° E

METAR

URKA 152330Z AUTO 17004MPS 7000 // NCD 10/08 Q1017 RMK QFE759/1012

Decode

TAF

TAF AMD TAF AMD URKA 151823Z 1518/1618 CNL

Decode

Destination Runways

ID Width Length Bearing (true) Bearing (mag) Surface Threshold Offset Overrun Length
04 138 ft / 42 m 7,961 ft / 2,426 m 43.79° 36.62° Concrete 0 ft / 0 m 157 ft / 48 m
04R 312 ft / 95 m 8,009 ft / 2,441 m 43.78° 36.61° Grass 0 ft / 0 m 0 ft / 0 m
22 138 ft / 42 m 7,961 ft / 2,426 m 223.81° 216.64° Concrete 0 ft / 0 m 164 ft / 50 m
22L 312 ft / 95 m 8,009 ft / 2,441 m 223.80° 216.63° Grass 0 ft / 0 m 0 ft / 0 m

Popular Alternatives